createdAt,value
2018-11-01T00:00:21.862Z,13.47
2018-11-01T00:02:50.405Z,13.97
2018-11-01T00:05:19.100Z,14.13
2018-11-01T00:07:47.651Z,13.10
2018-11-01T00:10:16.299Z,14.70
2018-11-01T00:12:45.184Z,14.20
2018-11-01T00:15:15.101Z,13.07
2018-11-01T00:17:43.668Z,15.07
2018-11-01T00:20:13.356Z,12.03
2018-11-01T00:22:42.544Z,16.67
2018-11-01T00:25:12.232Z,19.40
2018-11-01T00:27:41.653Z,12.70
2018-11-01T00:30:10.637Z,12.13
2018-11-01T00:32:39.476Z,13.07
2018-11-01T00:35:08.720Z,14.37
2018-11-01T00:37:37.339Z,11.37
2018-11-01T00:40:08.709Z,16.40
2018-11-01T00:42:37.287Z,11.93
2018-11-01T00:45:06.948Z,14.10
2018-11-01T00:47:35.663Z,15.17
2018-11-01T00:50:04.212Z,11.83
2018-11-01T00:52:32.737Z,12.10
2018-11-01T00:55:01.268Z,14.67
2018-11-01T00:57:29.856Z,14.60
2018-11-01T00:59:58.386Z,12.37
2018-11-01T01:02:26.999Z,15.00
2018-11-01T01:04:55.547Z,21.10
2018-11-01T01:07:24.090Z,13.60
2018-11-01T01:09:52.621Z,17.13
2018-11-01T01:12:21.204Z,14.27
2018-11-01T01:14:49.741Z,18.40
2018-11-01T01:17:18.270Z,13.00
2018-11-01T01:19:46.772Z,13.33
2018-11-01T01:22:15.312Z,18.67
2018-11-01T01:24:43.885Z,14.67
2018-11-01T01:27:12.454Z,16.95
2018-11-01T01:29:41.053Z,52.73
2018-11-01T01:32:09.631Z,68.43
2018-11-01T01:34:38.346Z,63.17
2018-11-01T01:37:07.016Z,61.40
2018-11-01T01:39:35.557Z,66.20
2018-11-01T01:42:04.164Z,46.20
2018-11-01T01:44:32.752Z,42.73
2018-11-01T01:47:01.361Z,137.90
2018-11-01T01:49:29.888Z,33.30
2018-11-01T01:51:58.440Z,28.43
2018-11-01T01:54:27.013Z,25.83
2018-11-01T01:56:55.553Z,27.77
2018-11-01T01:59:24.208Z,88.80
2018-11-01T02:01:52.746Z,73.77
2018-11-01T02:04:21.284Z,68.87
2018-11-01T02:06:49.873Z,51.43
2018-11-01T02:09:18.412Z,64.97
2018-11-01T02:11:47.045Z,122.50
2018-11-01T02:14:15.564Z,215.97
2018-11-01T02:16:44.124Z,212.90
2018-11-01T02:19:12.677Z,210.30
2018-11-01T02:21:41.220Z,183.83
2018-11-01T02:24:09.784Z,137.60
2018-11-01T02:26:38.360Z,144.97
2018-11-01T02:29:06.911Z,120.60
2018-11-01T02:31:35.442Z,129.10
2018-11-01T02:34:04.051Z,130.80
2018-11-01T02:36:32.567Z,106.63
2018-11-01T02:39:01.067Z,230.67
2018-11-01T02:41:29.571Z,194.27
2018-11-01T02:43:58.058Z,185.17
2018-11-01T02:46:26.536Z,148.03
2018-11-01T02:48:55.014Z,136.37
2018-11-01T02:51:23.467Z,94.87
2018-11-01T02:53:51.962Z,59.03
2018-11-01T02:56:20.473Z,46.23
2018-11-01T02:58:48.927Z,36.60
2018-11-01T03:01:18.094Z,36.57
2018-11-01T03:03:48.172Z,34.13
2018-11-01T03:06:17.070Z,36.20
2018-11-01T03:08:45.705Z,32.93
2018-11-01T03:11:14.392Z,37.27
2018-11-01T03:13:43.135Z,59.30
2018-11-01T03:16:11.623Z,55.07
2018-11-01T03:18:40.204Z,68.53
2018-11-01T03:21:08.703Z,62.33
2018-11-01T03:23:37.154Z,50.97
2018-11-01T03:26:05.659Z,48.97
2018-11-01T03:28:34.137Z,42.47
2018-11-01T03:31:02.929Z,38.53
2018-11-01T03:33:31.423Z,36.50
2018-11-01T03:35:59.871Z,35.60
2018-11-01T03:38:28.435Z,32.03
2018-11-01T03:40:56.886Z,29.23
2018-11-01T03:43:25.367Z,32.23
2018-11-01T03:45:53.875Z,25.57
2018-11-01T03:48:22.332Z,31.20
2018-11-01T03:50:50.814Z,32.37
2018-11-01T03:53:19.341Z,27.53
2018-11-01T03:55:47.803Z,23.73
2018-11-01T03:58:16.269Z,27.93
2018-11-01T04:00:44.715Z,30.73
2018-11-01T04:03:13.210Z,24.87
2018-11-01T04:05:41.681Z,24.57
2018-11-01T04:08:10.166Z,27.03
2018-11-01T04:10:38.634Z,22.20
2018-11-01T04:13:07.112Z,23.07
2018-11-01T04:15:35.630Z,25.00
2018-11-01T04:18:04.114Z,23.40
2018-11-01T04:20:32.617Z,22.23
2018-11-01T04:23:01.143Z,22.63
2018-11-01T04:25:29.642Z,18.97
2018-11-01T04:27:58.122Z,19.23
2018-11-01T04:30:26.608Z,27.25
2018-11-01T04:32:55.108Z,24.03
2018-11-01T04:35:23.614Z,22.57
2018-11-01T04:37:52.052Z,26.40
2018-11-01T04:40:20.545Z,24.83
2018-11-01T04:42:49.055Z,22.60
2018-11-01T04:45:17.550Z,23.10
2018-11-01T04:47:46.182Z,25.90
2018-11-01T04:50:14.582Z,22.87
2018-11-01T04:52:43.604Z,26.67
2018-11-01T04:55:12.082Z,24.73
2018-11-01T04:57:41.071Z,25.00
2018-11-01T05:00:12.501Z,22.47
2018-11-01T05:02:41.409Z,23.63
2018-11-01T05:05:09.989Z,20.90
2018-11-01T05:07:38.790Z,22.70
2018-11-01T05:10:08.993Z,21.73
2018-11-01T05:12:38.119Z,25.07
2018-11-01T05:15:07.035Z,21.83
2018-11-01T05:17:35.514Z,23.00
2018-11-01T05:20:04.229Z,27.63
2018-11-01T05:22:32.666Z,31.93
2018-11-01T05:25:01.146Z,24.27
2018-11-01T05:27:29.653Z,21.50
2018-11-01T05:29:58.105Z,26.03
2018-11-01T05:32:26.583Z,32.37
2018-11-01T05:34:55.079Z,26.43
2018-11-01T05:37:23.561Z,28.83
2018-11-01T05:39:52.049Z,26.70
2018-11-01T05:42:20.553Z,30.17
2018-11-01T05:44:49.048Z,24.50
2018-11-01T05:47:17.522Z,28.63
2018-11-01T05:49:46.005Z,31.43
2018-11-01T05:52:14.508Z,30.37
2018-11-01T05:54:42.985Z,29.30
2018-11-01T05:57:11.485Z,28.47
2018-11-01T05:59:39.957Z,21.63
2018-11-01T06:02:09.386Z,30.97
2018-11-01T06:04:37.887Z,29.40
2018-11-01T06:07:06.373Z,22.50
2018-11-01T06:09:34.860Z,23.07
2018-11-01T06:12:03.340Z,27.77
2018-11-01T06:14:31.811Z,29.63
2018-11-01T06:17:00.266Z,22.73
2018-11-01T06:19:28.747Z,28.97
2018-11-01T06:21:57.225Z,23.47
2018-11-01T06:24:25.675Z,24.10
2018-11-01T06:26:54.155Z,26.10
2018-11-01T06:29:22.626Z,24.87
2018-11-01T06:31:51.091Z,20.03
2018-11-01T06:34:26.217Z,27.73
2018-11-01T06:36:54.906Z,30.53
2018-11-01T06:39:23.387Z,22.90
2018-11-01T06:41:52.934Z,23.17
2018-11-01T06:44:21.440Z,19.30
2018-11-01T06:46:49.985Z,26.00
2018-11-01T06:49:19.584Z,25.37
2018-11-01T06:51:48.076Z,26.27
2018-11-01T06:54:16.945Z,24.80
2018-11-01T06:56:45.417Z,25.90
2018-11-01T06:59:14.100Z,21.63
2018-11-01T07:01:42.415Z,24.57
2018-11-01T07:04:10.903Z,24.20
2018-11-01T07:06:39.374Z,18.10
2018-11-01T07:09:11.119Z,20.30
2018-11-01T07:11:39.674Z,25.07
2018-11-01T07:14:09.291Z,25.43
2018-11-01T07:16:37.822Z,25.80
2018-11-01T07:19:06.467Z,26.07
2018-11-01T07:21:35.086Z,24.97
2018-11-01T07:24:03.587Z,26.93
2018-11-01T07:26:32.313Z,26.43
2018-11-01T07:29:00.723Z,21.73
2018-11-01T07:31:29.262Z,23.47
2018-11-01T07:33:57.726Z,27.80
2018-11-01T07:36:26.239Z,20.17
2018-11-01T07:38:54.703Z,18.23
2018-11-01T07:41:23.171Z,23.23
2018-11-01T07:43:51.656Z,23.87
2018-11-01T07:46:20.142Z,26.00
2018-11-01T07:48:48.764Z,21.37
2018-11-01T07:51:17.150Z,19.07
2018-11-01T07:53:45.629Z,24.03
2018-11-01T07:56:14.201Z,23.77
2018-11-01T07:58:42.713Z,20.37
2018-11-01T08:01:11.178Z,22.83
2018-11-01T08:03:39.662Z,19.83
2018-11-01T08:06:08.147Z,24.07
2018-11-01T08:08:36.619Z,20.90
2018-11-01T08:11:05.353Z,21.23
2018-11-01T08:13:33.843Z,21.50
2018-11-01T08:16:02.335Z,20.07
2018-11-01T08:18:30.794Z,14.63
2018-11-01T08:20:59.333Z,17.17
2018-11-01T08:23:27.750Z,19.57
2018-11-01T08:25:56.216Z,18.87
2018-11-01T08:28:24.733Z,19.60
2018-11-01T08:30:53.184Z,17.23
2018-11-01T08:33:21.676Z,18.90
2018-11-01T08:35:50.170Z,19.50
2018-11-01T08:38:18.640Z,14.73
2018-11-01T08:40:47.149Z,26.83
2018-11-01T08:43:15.729Z,22.50
2018-11-01T08:45:44.324Z,20.93
2018-11-01T08:48:12.798Z,18.87
2018-11-01T08:50:41.236Z,21.10
2018-11-01T08:53:09.702Z,18.47
2018-11-01T08:55:38.174Z,18.07
2018-11-01T08:58:06.730Z,16.77
2018-11-01T09:00:35.182Z,21.77
2018-11-01T09:03:03.671Z,153.80
2018-11-01T09:05:32.170Z,40.23
2018-11-01T09:08:00.722Z,22.40
2018-11-01T09:10:29.195Z,16.23
2018-11-01T09:12:57.773Z,17.77
2018-11-01T09:15:26.279Z,20.83
2018-11-01T09:17:54.784Z,16.90
2018-11-01T09:20:23.255Z,15.53
2018-11-01T09:22:51.754Z,17.27
2018-11-01T09:25:20.249Z,17.97
2018-11-01T09:27:48.778Z,19.90
2018-11-01T09:30:17.290Z,14.00
2018-11-01T09:32:45.813Z,14.83
2018-11-01T09:35:14.292Z,15.10
2018-11-01T09:37:43.205Z,16.53
2018-11-01T09:40:13.038Z,17.27
2018-11-01T09:42:41.925Z,15.83
2018-11-01T09:45:10.438Z,16.67
2018-11-01T09:47:39.454Z,10.73
2018-11-01T09:50:08.891Z,11.97
2018-11-01T09:52:37.567Z,12.03
2018-11-01T09:55:06.620Z,8.47
2018-11-01T09:57:35.269Z,13.57
2018-11-01T10:00:04.599Z,10.37
2018-11-01T10:02:33.090Z,10.20
2018-11-01T10:05:01.583Z,8.97
2018-11-01T10:07:30.082Z,7.30
2018-11-01T10:09:58.590Z,9.93
2018-11-01T10:12:27.106Z,7.33
2018-11-01T10:14:55.663Z,7.40
2018-11-01T10:17:24.628Z,7.87
2018-11-01T10:19:52.673Z,7.83
2018-11-01T10:22:21.262Z,8.43
2018-11-01T10:24:50.471Z,5.73
2018-11-01T10:27:20.070Z,9.43
2018-11-01T10:29:47.486Z,8.43
2018-11-01T10:32:15.955Z,9.93
2018-11-01T10:34:44.460Z,9.17
2018-11-01T10:37:12.920Z,5.93
2018-11-01T10:39:41.391Z,8.10
2018-11-01T10:42:09.869Z,8.33
2018-11-01T10:44:38.352Z,6.03
2018-11-01T10:47:06.880Z,6.20
2018-11-01T10:49:35.342Z,6.07
2018-11-01T10:52:03.867Z,6.27
2018-11-01T10:54:32.350Z,6.63
2018-11-01T10:57:00.855Z,7.87
2018-11-01T10:59:29.343Z,6.93
2018-11-01T11:02:03.310Z,8.17
2018-11-01T11:04:31.801Z,8.77
2018-11-01T11:07:00.250Z,6.83
2018-11-01T11:09:28.744Z,10.23
2018-11-01T11:11:57.193Z,7.80
2018-11-01T11:14:25.733Z,6.97
2018-11-01T11:16:54.162Z,4.67
2018-11-01T11:19:22.665Z,10.10
2018-11-01T11:21:51.148Z,10.97
2018-11-01T11:24:19.631Z,8.33
2018-11-01T11:26:48.107Z,9.85
2018-11-01T11:29:16.562Z,7.93
2018-11-01T11:31:45.133Z,8.77
2018-11-01T11:34:13.619Z,7.60
2018-11-01T11:36:42.103Z,8.47
2018-11-01T11:39:11.960Z,6.70
2018-11-01T11:41:40.955Z,8.73
2018-11-01T11:44:09.961Z,6.53
2018-11-01T11:46:38.765Z,4.13
2018-11-01T11:49:07.420Z,5.87
2018-11-01T11:51:36.467Z,2.97
2018-11-01T11:54:05.400Z,8.77
2018-11-01T11:56:33.875Z,7.20
2018-11-01T11:59:02.684Z,9.67
2018-11-01T12:01:31.167Z,5.63
2018-11-01T12:03:59.663Z,7.77
2018-11-01T12:06:28.141Z,7.00
2018-11-01T12:08:56.623Z,3.60
2018-11-01T12:11:25.179Z,9.27
2018-11-01T12:13:53.667Z,5.67
2018-11-01T12:16:22.157Z,5.13
2018-11-01T12:18:50.626Z,5.53
2018-11-01T12:21:19.126Z,7.43
2018-11-01T12:23:47.590Z,10.37
2018-11-01T12:26:16.229Z,5.60
2018-11-01T12:28:44.886Z,10.17
2018-11-01T12:31:13.191Z,6.67
2018-11-01T12:33:41.646Z,7.43
2018-11-01T12:36:10.255Z,7.73
2018-11-01T12:38:38.602Z,5.60
2018-11-01T12:41:07.089Z,6.30
2018-11-01T12:43:35.542Z,6.63
2018-11-01T12:46:04.018Z,9.20
2018-11-01T12:48:32.497Z,6.75
2018-11-01T12:51:00.964Z,3.37
2018-11-01T12:53:29.475Z,4.20
2018-11-01T12:55:57.950Z,6.73
2018-11-01T12:58:26.421Z,5.00
2018-11-01T13:00:54.918Z,4.03
2018-11-01T13:03:23.395Z,5.37
2018-11-01T13:05:51.881Z,1.87
2018-11-01T13:08:20.574Z,3.33
2018-11-01T13:10:49.314Z,8.40
2018-11-01T13:13:17.725Z,4.93
2018-11-01T13:15:46.229Z,5.33
2018-11-01T13:18:14.715Z,4.17
2018-11-01T13:20:43.190Z,3.70
2018-11-01T13:23:11.669Z,8.17
2018-11-01T13:25:40.154Z,3.00
2018-11-01T13:28:08.653Z,6.80
2018-11-01T13:30:37.173Z,17.63
2018-11-01T13:33:05.942Z,9.07
2018-11-01T13:35:34.482Z,6.27
2018-11-01T13:38:02.936Z,7.10
2018-11-01T13:40:31.814Z,5.90
2018-11-01T13:42:59.906Z,3.83
2018-11-01T13:45:28.388Z,4.63
2018-11-01T13:47:56.914Z,6.50
2018-11-01T13:50:25.354Z,6.47
2018-11-01T13:52:53.818Z,4.63
2018-11-01T13:55:22.291Z,5.70
2018-11-01T13:57:50.737Z,5.23
2018-11-01T14:00:19.191Z,6.07
2018-11-01T14:02:47.643Z,5.00
2018-11-01T14:05:17.175Z,4.87
2018-11-01T14:07:45.810Z,4.70
2018-11-01T14:10:15.341Z,4.13
2018-11-01T14:12:43.994Z,5.40
2018-11-01T14:15:12.921Z,4.07
2018-11-01T14:17:41.670Z,6.00
2018-11-01T14:20:12.238Z,6.13
2018-11-01T14:22:40.860Z,5.90
2018-11-01T14:25:10.845Z,7.97
2018-11-01T14:27:39.494Z,10.93
2018-11-01T14:30:10.610Z,7.23
2018-11-01T14:32:39.441Z,6.93
2018-11-01T14:35:08.238Z,9.50
2018-11-01T14:37:36.815Z,3.57
2018-11-01T14:40:06.807Z,4.17
2018-11-01T14:42:35.314Z,7.43
2018-11-01T14:45:03.873Z,10.23
2018-11-01T14:47:32.367Z,4.63
2018-11-01T14:50:00.830Z,5.60
2018-11-01T14:52:29.832Z,13.80
2018-11-01T14:54:59.032Z,6.23
2018-11-01T14:57:28.276Z,5.53
2018-11-01T14:59:55.868Z,5.77
2018-11-01T15:02:23.971Z,4.23
2018-11-01T15:04:52.478Z,8.13
2018-11-01T15:07:20.934Z,11.40
2018-11-01T15:09:49.383Z,5.90
2018-11-01T15:12:17.905Z,6.13
2018-11-01T15:14:46.350Z,12.40
2018-11-01T15:17:14.850Z,9.57
2018-11-01T15:19:43.387Z,5.07
2018-11-01T15:22:11.883Z,8.10
2018-11-01T15:24:40.419Z,5.10
2018-11-01T15:27:08.921Z,8.23
2018-11-01T15:29:37.677Z,10.70
2018-11-01T15:32:06.168Z,12.27
2018-11-01T15:34:35.072Z,6.57
2018-11-01T15:37:03.562Z,8.13
2018-11-01T15:39:32.022Z,6.20
2018-11-01T15:42:00.484Z,5.80
2018-11-01T15:44:28.963Z,6.83
2018-11-01T15:46:57.530Z,5.53
2018-11-01T15:49:26.006Z,10.77
2018-11-01T15:51:54.544Z,7.00
2018-11-01T15:54:22.958Z,7.10
2018-11-01T15:56:51.434Z,8.27
2018-11-01T15:59:19.926Z,7.00
2018-11-01T16:01:48.424Z,6.70
2018-11-01T16:04:16.883Z,4.47
2018-11-01T16:06:45.379Z,6.23
2018-11-01T16:09:14.378Z,6.67
2018-11-01T16:11:43.172Z,5.33
2018-11-01T16:14:11.946Z,5.73
2018-11-01T16:16:40.733Z,5.17
2018-11-01T16:19:10.133Z,5.27
2018-11-01T16:21:38.826Z,3.50
2018-11-01T16:24:07.334Z,2.80
2018-11-01T16:26:35.850Z,6.13
2018-11-01T16:29:04.342Z,5.60
2018-11-01T16:31:32.822Z,6.37
2018-11-01T16:34:01.303Z,4.43
2018-11-01T16:36:29.824Z,4.33
2018-11-01T16:38:58.270Z,3.93
2018-11-01T16:41:26.814Z,7.67
2018-11-01T16:43:55.296Z,3.47
2018-11-01T16:46:23.812Z,4.27
2018-11-01T16:48:52.301Z,8.87
2018-11-01T16:51:20.775Z,7.23
2018-11-01T16:53:49.281Z,4.80
2018-11-01T16:56:17.751Z,4.73
2018-11-01T16:58:46.230Z,7.50
2018-11-01T17:01:14.719Z,7.23
2018-11-01T17:03:43.182Z,8.03
2018-11-01T17:06:11.670Z,6.97
2018-11-01T17:08:40.280Z,5.47
2018-11-01T17:11:08.693Z,5.60
2018-11-01T17:13:37.162Z,7.13
2018-11-01T17:16:06.308Z,10.87
2018-11-01T17:18:34.815Z,4.30
2018-11-01T17:21:03.317Z,4.90
2018-11-01T17:23:32.275Z,7.60
2018-11-01T17:26:00.743Z,8.67
2018-11-01T17:28:29.227Z,6.23
2018-11-01T17:30:57.706Z,7.93
2018-11-01T17:33:26.196Z,6.77
2018-11-01T17:35:54.667Z,12.33
2018-11-01T17:38:23.138Z,8.53
2018-11-01T17:40:51.622Z,7.17
2018-11-01T17:43:20.188Z,5.23
2018-11-01T17:45:48.643Z,7.70
2018-11-01T17:48:17.118Z,5.67
2018-11-01T17:50:46.442Z,5.97
2018-11-01T17:53:14.918Z,6.00
2018-11-01T17:55:43.388Z,7.07
2018-11-01T17:58:11.874Z,16.50
2018-11-01T18:00:40.346Z,5.73
2018-11-01T18:03:08.873Z,4.57
2018-11-01T18:05:37.338Z,8.17
2018-11-01T18:08:06.157Z,7.60
2018-11-01T18:10:34.650Z,9.07
2018-11-01T18:13:03.171Z,7.13
2018-11-01T18:15:31.668Z,18.77
2018-11-01T18:18:00.171Z,16.73
2018-11-01T18:20:28.687Z,14.83
2018-11-01T18:22:57.148Z,10.57
2018-11-01T18:25:25.654Z,6.77
2018-11-01T18:27:54.094Z,16.57
2018-11-01T18:30:22.704Z,8.30
2018-11-01T18:32:51.378Z,10.70
2018-11-01T18:35:19.651Z,11.17
2018-11-01T18:37:48.170Z,6.10
2018-11-01T18:40:17.915Z,8.20
2018-11-01T18:42:46.398Z,8.30
2018-11-01T18:45:15.595Z,7.73
2018-11-01T18:47:44.507Z,9.00
2018-11-01T18:50:14.430Z,9.43
2018-11-01T18:52:43.080Z,9.60
2018-11-01T18:55:12.422Z,6.70
2018-11-01T18:57:41.887Z,8.13
2018-11-01T19:00:13.292Z,8.13
2018-11-01T19:02:41.923Z,11.73
2018-11-01T19:05:11.170Z,8.33
2018-11-01T19:07:39.822Z,8.60
2018-11-01T19:10:10.084Z,9.30
2018-11-01T19:12:38.554Z,10.87
2018-11-01T19:15:08.578Z,10.80
2018-11-01T19:17:37.522Z,9.00
2018-11-01T19:20:06.941Z,12.43
2018-11-01T19:22:35.616Z,7.50
2018-11-01T19:25:04.157Z,10.60
2018-11-01T19:27:32.971Z,11.87
2018-11-01T19:30:01.377Z,6.77
2018-11-01T19:32:29.871Z,8.67
2018-11-01T19:34:58.358Z,11.40
2018-11-01T19:37:27.100Z,9.50
2018-11-01T19:39:55.767Z,10.97
2018-11-01T19:42:24.106Z,6.33
2018-11-01T19:44:52.635Z,8.67
2018-11-01T19:47:21.334Z,7.87
2018-11-01T19:49:49.934Z,9.13
2018-11-01T19:52:18.287Z,6.80
2018-11-01T19:54:46.816Z,5.90
2018-11-01T19:57:15.259Z,8.47
2018-11-01T19:59:43.710Z,14.00
2018-11-01T20:02:12.238Z,10.67
2018-11-01T20:04:40.716Z,10.90
2018-11-01T20:07:09.194Z,9.17
2018-11-01T20:09:37.754Z,7.70
2018-11-01T20:12:06.635Z,9.17
2018-11-01T20:14:35.164Z,13.60
2018-11-01T20:17:03.614Z,7.43
2018-11-01T20:19:32.103Z,9.77
2018-11-01T20:22:00.547Z,5.50
2018-11-01T20:24:29.033Z,10.40
2018-11-01T20:26:57.524Z,5.90
2018-11-01T20:29:26.044Z,7.67
2018-11-01T20:31:54.638Z,17.67
2018-11-01T20:34:23.175Z,14.77
2018-11-01T20:36:51.626Z,9.50
2018-11-01T20:39:20.114Z,13.00
2018-11-01T20:41:48.602Z,13.10
2018-11-01T20:44:17.105Z,12.20
2018-11-01T20:46:45.586Z,9.33
2018-11-01T20:49:14.174Z,7.78
2018-11-01T20:51:42.658Z,13.07
2018-11-01T20:54:11.178Z,12.17
2018-11-01T20:56:39.646Z,14.10
2018-11-01T20:59:08.152Z,8.63
2018-11-01T21:01:36.614Z,9.83
2018-11-01T21:04:05.771Z,12.40
2018-11-01T21:06:34.266Z,15.43
2018-11-01T21:09:02.806Z,8.27
2018-11-01T21:11:31.405Z,4.83
2018-11-01T21:13:59.785Z,10.93
2018-11-01T21:16:28.240Z,11.37
2018-11-01T21:18:56.758Z,16.83
2018-11-01T21:21:25.210Z,19.80
2018-11-01T21:23:53.669Z,6.00
2018-11-01T21:26:22.194Z,10.40
2018-11-01T21:28:50.671Z,8.30
2018-11-01T21:31:19.143Z,9.63
2018-11-01T21:33:47.610Z,9.90
2018-11-01T21:36:16.103Z,9.40
2018-11-01T21:38:44.563Z,11.30
2018-11-01T21:41:13.058Z,12.23
2018-11-01T21:43:41.515Z,10.20
2018-11-01T21:46:10.027Z,9.03
2018-11-01T21:48:38.542Z,10.30
2018-11-01T21:51:07.033Z,8.03
2018-11-01T21:53:35.487Z,8.93
2018-11-01T21:56:03.977Z,11.57
2018-11-01T21:58:32.507Z,5.30
2018-11-01T22:01:00.993Z,12.53
2018-11-01T22:03:29.454Z,9.93
2018-11-01T22:05:57.953Z,8.23
2018-11-01T22:08:26.431Z,6.53
2018-11-01T22:10:54.909Z,5.93
2018-11-01T22:13:23.513Z,6.77
2018-11-01T22:15:51.996Z,8.10
2018-11-01T22:18:20.486Z,12.03
2018-11-01T22:20:48.950Z,6.97
2018-11-01T22:23:17.487Z,7.50
2018-11-01T22:25:45.959Z,6.30
2018-11-01T22:28:14.573Z,7.90
2018-11-01T22:30:42.965Z,8.40
2018-11-01T22:33:11.438Z,7.50
2018-11-01T22:35:39.923Z,9.00
2018-11-01T22:38:08.394Z,10.53
2018-11-01T22:40:36.863Z,8.60
2018-11-01T22:43:05.640Z,10.40
2018-11-01T22:45:34.122Z,6.43
2018-11-01T22:48:02.610Z,12.30
2018-11-01T22:50:31.058Z,8.77
2018-11-01T22:52:59.543Z,10.40
2018-11-01T22:55:28.250Z,6.30
2018-11-01T22:57:56.683Z,9.50
2018-11-01T23:00:25.195Z,6.53
2018-11-01T23:02:53.683Z,13.60
2018-11-01T23:05:22.134Z,7.00
2018-11-01T23:07:50.738Z,9.23
2018-11-01T23:10:19.249Z,6.40
2018-11-01T23:12:47.754Z,6.50
2018-11-01T23:15:16.252Z,6.10
2018-11-01T23:17:44.771Z,7.27
2018-11-01T23:20:13.814Z,7.10
2018-11-01T23:22:42.299Z,8.63
2018-11-01T23:25:10.780Z,7.47
2018-11-01T23:27:39.271Z,4.80
2018-11-01T23:30:07.808Z,8.73
2018-11-01T23:32:36.274Z,7.40
2018-11-01T23:35:05.141Z,9.70
2018-11-01T23:37:39.083Z,141.23
2018-11-01T23:40:12.803Z,9.87
2018-11-01T23:42:46.595Z,6.63
2018-11-01T23:45:20.334Z,8.53
2018-11-01T23:47:54.094Z,7.23
2018-11-01T23:50:26.912Z,6.60
2018-11-01T23:52:58.031Z,4.53
2018-11-01T23:55:26.529Z,5.20
2018-11-01T23:57:55.037Z,8.43
